sensor_id;sensor_type;location;lat;lon;timestamp;P1;durP1;ratioP1;P2;durP2;ratioP2
19879;SDS011;10102;50.828;4.416;2024-03-29T00:00:40;7.82;;;1.15;;
19879;SDS011;10102;50.828;4.416;2024-03-29T00:03:08;3.63;;;1.15;;
19879;SDS011;10102;50.828;4.416;2024-03-29T00:05:34;5.30;;;1.20;;
19879;SDS011;10102;50.828;4.416;2024-03-29T00:08:01;7.55;;;1.42;;
19879;SDS011;10102;50.828;4.416;2024-03-29T00:10:27;6.38;;;1.50;;
19879;SDS011;10102;50.828;4.416;2024-03-29T00:12:52;4.32;;;1.02;;
19879;SDS011;10102;50.828;4.416;2024-03-29T00:15:18;3.00;;;1.38;;
19879;SDS011;10102;50.828;4.416;2024-03-29T00:17:44;8.00;;;1.30;;
19879;SDS011;10102;50.828;4.416;2024-03-29T00:20:09;5.22;;;1.23;;
19879;SDS011;10102;50.828;4.416;2024-03-29T00:22:37;5.50;;;1.27;;
19879;SDS011;10102;50.828;4.416;2024-03-29T00:25:02;3.97;;;1.40;;
19879;SDS011;10102;50.828;4.416;2024-03-29T00:27:28;3.30;;;1.48;;
19879;SDS011;10102;50.828;4.416;2024-03-29T00:29:55;2.67;;;1.20;;
19879;SDS011;10102;50.828;4.416;2024-03-29T00:32:21;3.17;;;1.23;;
19879;SDS011;10102;50.828;4.416;2024-03-29T00:34:51;5.00;;;1.30;;
19879;SDS011;10102;50.828;4.416;2024-03-29T00:37:19;2.92;;;1.30;;
19879;SDS011;10102;50.828;4.416;2024-03-29T00:39:45;5.45;;;1.20;;
19879;SDS011;10102;50.828;4.416;2024-03-29T00:42:11;1.38;;;1.10;;
19879;SDS011;10102;50.828;4.416;2024-03-29T00:44:40;2.17;;;1.23;;
19879;SDS011;10102;50.828;4.416;2024-03-29T00:47:09;5.03;;;1.20;;
19879;SDS011;10102;50.828;4.416;2024-03-29T00:49:35;6.00;;;1.58;;
19879;SDS011;10102;50.828;4.416;2024-03-29T00:52:01;2.65;;;1.23;;
19879;SDS011;10102;50.828;4.416;2024-03-29T00:54:28;3.60;;;1.48;;
19879;SDS011;10102;50.828;4.416;2024-03-29T00:56:53;5.18;;;1.00;;
19879;SDS011;10102;50.828;4.416;2024-03-29T00:59:19;4.35;;;1.35;;
19879;SDS011;10102;50.828;4.416;2024-03-29T01:01:45;3.88;;;1.17;;
19879;SDS011;10102;50.828;4.416;2024-03-29T01:04:12;6.13;;;1.23;;
19879;SDS011;10102;50.828;4.416;2024-03-29T01:06:38;5.82;;;1.33;;
19879;SDS011;10102;50.828;4.416;2024-03-29T01:09:05;3.58;;;1.23;;
19879;SDS011;10102;50.828;4.416;2024-03-29T01:11:31;2.45;;;1.00;;
19879;SDS011;10102;50.828;4.416;2024-03-29T01:13:57;5.85;;;0.90;;
19879;SDS011;10102;50.828;4.416;2024-03-29T01:16:23;2.70;;;1.00;;
19879;SDS011;10102;50.828;4.416;2024-03-29T01:18:49;6.05;;;1.23;;
19879;SDS011;10102;50.828;4.416;2024-03-29T01:21:16;4.03;;;1.10;;
19879;SDS011;10102;50.828;4.416;2024-03-29T01:23:43;2.70;;;1.30;;
19879;SDS011;10102;50.828;4.416;2024-03-29T01:26:08;2.13;;;1.17;;
19879;SDS011;10102;50.828;4.416;2024-03-29T01:28:37;1.98;;;1.10;;
19879;SDS011;10102;50.828;4.416;2024-03-29T01:31:03;3.75;;;1.00;;
19879;SDS011;10102;50.828;4.416;2024-03-29T01:33:30;3.90;;;1.15;;
19879;SDS011;10102;50.828;4.416;2024-03-29T01:35:58;3.95;;;1.02;;
19879;SDS011;10102;50.828;4.416;2024-03-29T01:38:24;6.07;;;1.10;;
19879;SDS011;10102;50.828;4.416;2024-03-29T01:40:50;1.90;;;1.10;;
19879;SDS011;10102;50.828;4.416;2024-03-29T01:43:17;2.80;;;0.80;;
19879;SDS011;10102;50.828;4.416;2024-03-29T01:45:44;2.45;;;1.10;;
19879;SDS011;10102;50.828;4.416;2024-03-29T01:48:14;3.20;;;1.10;;
19879;SDS011;10102;50.828;4.416;2024-03-29T01:50:42;2.22;;;1.15;;
19879;SDS011;10102;50.828;4.416;2024-03-29T01:53:09;1.73;;;0.82;;
19879;SDS011;10102;50.828;4.416;2024-03-29T01:55:35;1.50;;;0.90;;
19879;SDS011;10102;50.828;4.416;2024-03-29T01:58:01;2.15;;;1.02;;
19879;SDS011;10102;50.828;4.416;2024-03-29T02:00:27;5.13;;;1.00;;
19879;SDS011;10102;50.828;4.416;2024-03-29T02:02:55;1.88;;;0.77;;
19879;SDS011;10102;50.828;4.416;2024-03-29T02:05:21;2.65;;;0.93;;
19879;SDS011;10102;50.828;4.416;2024-03-29T02:07:48;0.98;;;0.85;;
19879;SDS011;10102;50.828;4.416;2024-03-29T02:10:14;2.33;;;0.90;;
19879;SDS011;10102;50.828;4.416;2024-03-29T02:12:41;1.05;;;0.95;;
19879;SDS011;10102;50.828;4.416;2024-03-29T02:15:07;3.15;;;1.10;;
19879;SDS011;10102;50.828;4.416;2024-03-29T02:17:33;0.85;;;0.85;;
19879;SDS011;10102;50.828;4.416;2024-03-29T02:19:59;1.58;;;1.05;;
19879;SDS011;10102;50.828;4.416;2024-03-29T02:22:25;1.77;;;1.05;;
19879;SDS011;10102;50.828;4.416;2024-03-29T02:24:54;1.60;;;0.70;;
19879;SDS011;10102;50.828;4.416;2024-03-29T02:27:21;5.88;;;1.00;;
19879;SDS011;10102;50.828;4.416;2024-03-29T02:29:48;2.05;;;0.73;;
19879;SDS011;10102;50.828;4.416;2024-03-29T02:32:14;2.22;;;0.80;;
19879;SDS011;10102;50.828;4.416;2024-03-29T02:34:40;1.35;;;0.77;;
19879;SDS011;10102;50.828;4.416;2024-03-29T02:37:05;1.73;;;0.77;;
19879;SDS011;10102;50.828;4.416;2024-03-29T02:39:32;0.93;;;0.80;;
19879;SDS011;10102;50.828;4.416;2024-03-29T02:41:58;1.92;;;1.00;;
19879;SDS011;10102;50.828;4.416;2024-03-29T02:44:24;2.42;;;1.05;;
19879;SDS011;10102;50.828;4.416;2024-03-29T02:46:50;1.45;;;0.90;;
19879;SDS011;10102;50.828;4.416;2024-03-29T02:49:16;3.70;;;1.05;;
19879;SDS011;10102;50.828;4.416;2024-03-29T02:51:42;1.27;;;0.90;;
19879;SDS011;10102;50.828;4.416;2024-03-29T02:54:07;2.08;;;0.90;;
19879;SDS011;10102;50.828;4.416;2024-03-29T02:56:33;5.00;;;1.00;;
19879;SDS011;10102;50.828;4.416;2024-03-29T02:58:59;1.75;;;1.00;;
19879;SDS011;10102;50.828;4.416;2024-03-29T03:01:24;1.50;;;1.10;;
19879;SDS011;10102;50.828;4.416;2024-03-29T03:03:50;2.95;;;1.25;;
19879;SDS011;10102;50.828;4.416;2024-03-29T03:06:16;1.27;;;1.00;;
19879;SDS011;10102;50.828;4.416;2024-03-29T03:08:42;3.28;;;1.00;;
19879;SDS011;10102;50.828;4.416;2024-03-29T03:11:26;3.90;;;1.42;;
19879;SDS011;10102;50.828;4.416;2024-03-29T03:13:52;3.47;;;1.40;;
19879;SDS011;10102;50.828;4.416;2024-03-29T03:16:18;2.83;;;1.20;;
19879;SDS011;10102;50.828;4.416;2024-03-29T03:18:44;2.85;;;1.08;;
19879;SDS011;10102;50.828;4.416;2024-03-29T03:21:09;1.27;;;1.02;;
19879;SDS011;10102;50.828;4.416;2024-03-29T03:23:35;2.38;;;1.25;;
19879;SDS011;10102;50.828;4.416;2024-03-29T03:26:02;2.22;;;1.25;;
19879;SDS011;10102;50.828;4.416;2024-03-29T03:28:31;2.20;;;1.10;;
19879;SDS011;10102;50.828;4.416;2024-03-29T03:30:57;1.45;;;1.20;;
19879;SDS011;10102;50.828;4.416;2024-03-29T03:33:23;1.30;;;1.20;;
19879;SDS011;10102;50.828;4.416;2024-03-29T03:35:48;2.20;;;1.13;;
19879;SDS011;10102;50.828;4.416;2024-03-29T03:38:14;3.25;;;1.20;;
19879;SDS011;10102;50.828;4.416;2024-03-29T03:40:41;4.20;;;1.42;;
19879;SDS011;10102;50.828;4.416;2024-03-29T03:43:07;1.52;;;1.10;;
19879;SDS011;10102;50.828;4.416;2024-03-29T03:45:34;1.63;;;1.20;;
19879;SDS011;10102;50.828;4.416;2024-03-29T03:48:04;1.52;;;0.85;;
19879;SDS011;10102;50.828;4.416;2024-03-29T03:50:31;2.45;;;0.90;;
19879;SDS011;10102;50.828;4.416;2024-03-29T03:52:57;1.35;;;1.23;;
19879;SDS011;10102;50.828;4.416;2024-03-29T03:55:23;3.92;;;1.00;;
19879;SDS011;10102;50.828;4.416;2024-03-29T03:57:49;4.35;;;1.40;;
19879;SDS011;10102;50.828;4.416;2024-03-29T04:00:15;1.65;;;1.40;;
19879;SDS011;10102;50.828;4.416;2024-03-29T04:02:46;2.92;;;0.98;;
19879;SDS011;10102;50.828;4.416;2024-03-29T04:05:13;1.55;;;0.98;;
19879;SDS011;10102;50.828;4.416;2024-03-29T04:07:39;5.45;;;1.45;;
19879;SDS011;10102;50.828;4.416;2024-03-29T04:10:04;5.45;;;1.33;;
19879;SDS011;10102;50.828;4.416;2024-03-29T04:12:30;4.60;;;1.25;;
19879;SDS011;10102;50.828;4.416;2024-03-29T04:14:56;3.90;;;1.27;;
19879;SDS011;10102;50.828;4.416;2024-03-29T04:17:24;1.63;;;1.00;;
19879;SDS011;10102;50.828;4.416;2024-03-29T04:19:50;4.50;;;1.20;;
19879;SDS011;10102;50.828;4.416;2024-03-29T04:22:16;2.50;;;1.00;;
19879;SDS011;10102;50.828;4.416;2024-03-29T04:24:42;2.20;;;1.20;;
19879;SDS011;10102;50.828;4.416;2024-03-29T04:27:07;3.88;;;1.05;;
19879;SDS011;10102;50.828;4.416;2024-03-29T04:29:33;3.28;;;1.23;;
19879;SDS011;10102;50.828;4.416;2024-03-29T04:31:59;1.15;;;1.05;;
19879;SDS011;10102;50.828;4.416;2024-03-29T04:34:24;3.78;;;1.02;;
19879;SDS011;10102;50.828;4.416;2024-03-29T04:36:50;1.25;;;1.10;;
19879;SDS011;10102;50.828;4.416;2024-03-29T04:39:16;0.95;;;0.93;;
19879;SDS011;10102;50.828;4.416;2024-03-29T04:41:42;1.15;;;1.10;;
19879;SDS011;10102;50.828;4.416;2024-03-29T04:44:07;3.00;;;1.42;;
19879;SDS011;10102;50.828;4.416;2024-03-29T04:46:33;3.42;;;1.20;;
19879;SDS011;10102;50.828;4.416;2024-03-29T04:48:59;2.13;;;1.08;;
19879;SDS011;10102;50.828;4.416;2024-03-29T04:51:25;2.22;;;1.10;;
19879;SDS011;10102;50.828;4.416;2024-03-29T04:53:51;1.25;;;1.00;;
19879;SDS011;10102;50.828;4.416;2024-03-29T04:56:17;6.25;;;0.82;;
19879;SDS011;10102;50.828;4.416;2024-03-29T04:58:43;6.55;;;1.00;;
19879;SDS011;10102;50.828;4.416;2024-03-29T05:01:11;3.60;;;1.02;;
19879;SDS011;10102;50.828;4.416;2024-03-29T05:03:37;2.38;;;0.98;;
19879;SDS011;10102;50.828;4.416;2024-03-29T05:06:02;1.83;;;1.05;;
19879;SDS011;10102;50.828;4.416;2024-03-29T05:08:28;2.22;;;1.10;;
19879;SDS011;10102;50.828;4.416;2024-03-29T05:10:54;3.65;;;1.08;;
19879;SDS011;10102;50.828;4.416;2024-03-29T05:13:19;1.65;;;1.00;;
19879;SDS011;10102;50.828;4.416;2024-03-29T05:15:46;1.98;;;1.00;;
19879;SDS011;10102;50.828;4.416;2024-03-29T05:18:12;1.10;;;1.00;;
19879;SDS011;10102;50.828;4.416;2024-03-29T05:20:38;2.03;;;1.25;;
19879;SDS011;10102;50.828;4.416;2024-03-29T05:23:12;3.25;;;1.05;;
19879;SDS011;10102;50.828;4.416;2024-03-29T05:25:39;1.77;;;0.88;;
19879;SDS011;10102;50.828;4.416;2024-03-29T05:28:05;1.48;;;1.10;;
19879;SDS011;10102;50.828;4.416;2024-03-29T05:30:32;1.15;;;1.00;;
19879;SDS011;10102;50.828;4.416;2024-03-29T05:32:59;4.57;;;1.88;;
19879;SDS011;10102;50.828;4.416;2024-03-29T05:35:25;2.38;;;1.15;;
19879;SDS011;10102;50.828;4.416;2024-03-29T05:37:51;1.17;;;1.05;;
19879;SDS011;10102;50.828;4.416;2024-03-29T05:40:19;1.80;;;1.05;;
19879;SDS011;10102;50.828;4.416;2024-03-29T05:42:50;3.28;;;1.05;;
19879;SDS011;10102;50.828;4.416;2024-03-29T05:45:26;2.15;;;1.05;;
19879;SDS011;10102;50.828;4.416;2024-03-29T05:47:54;5.53;;;1.15;;
19879;SDS011;10102;50.828;4.416;2024-03-29T05:50:21;1.20;;;1.10;;
19879;SDS011;10102;50.828;4.416;2024-03-29T05:52:48;2.55;;;1.42;;
19879;SDS011;10102;50.828;4.416;2024-03-29T05:55:14;2.58;;;1.15;;
19879;SDS011;10102;50.828;4.416;2024-03-29T05:57:39;0.88;;;0.88;;
19879;SDS011;10102;50.828;4.416;2024-03-29T06:00:10;1.13;;;1.00;;
19879;SDS011;10102;50.828;4.416;2024-03-29T06:02:37;1.92;;;1.05;;
19879;SDS011;10102;50.828;4.416;2024-03-29T06:05:03;5.10;;;1.38;;
19879;SDS011;10102;50.828;4.416;2024-03-29T06:07:30;2.58;;;1.10;;
19879;SDS011;10102;50.828;4.416;2024-03-29T06:09:58;2.63;;;1.38;;
19879;SDS011;10102;50.828;4.416;2024-03-29T06:12:25;2.85;;;1.30;;
19879;SDS011;10102;50.828;4.416;2024-03-29T06:14:51;3.28;;;1.30;;
19879;SDS011;10102;50.828;4.416;2024-03-29T06:17:36;3.28;;;1.55;;
19879;SDS011;10102;50.828;4.416;2024-03-29T06:20:02;2.85;;;1.50;;
19879;SDS011;10102;50.828;4.416;2024-03-29T06:22:29;2.25;;;1.40;;
19879;SDS011;10102;50.828;4.416;2024-03-29T06:24:55;2.58;;;1.55;;
19879;SDS011;10102;50.828;4.416;2024-03-29T06:27:24;3.75;;;1.90;;
19879;SDS011;10102;50.828;4.416;2024-03-29T06:29:50;2.67;;;1.70;;
19879;SDS011;10102;50.828;4.416;2024-03-29T06:32:16;3.90;;;1.70;;
19879;SDS011;10102;50.828;4.416;2024-03-29T06:34:43;6.10;;;1.70;;
19879;SDS011;10102;50.828;4.416;2024-03-29T06:37:12;4.95;;;1.40;;
19879;SDS011;10102;50.828;4.416;2024-03-29T06:39:38;2.30;;;1.20;;
19879;SDS011;10102;50.828;4.416;2024-03-29T06:42:05;4.68;;;2.00;;
19879;SDS011;10102;50.828;4.416;2024-03-29T06:44:34;5.32;;;1.60;;
19879;SDS011;10102;50.828;4.416;2024-03-29T06:47:00;3.17;;;1.63;;
19879;SDS011;10102;50.828;4.416;2024-03-29T06:49:26;5.90;;;1.88;;
19879;SDS011;10102;50.828;4.416;2024-03-29T06:51:52;3.22;;;1.58;;
19879;SDS011;10102;50.828;4.416;2024-03-29T06:54:18;6.10;;;2.00;;
19879;SDS011;10102;50.828;4.416;2024-03-29T06:56:47;3.92;;;1.80;;
19879;SDS011;10102;50.828;4.416;2024-03-29T06:59:13;2.30;;;1.30;;
19879;SDS011;10102;50.828;4.416;2024-03-29T07:01:39;3.40;;;1.52;;
19879;SDS011;10102;50.828;4.416;2024-03-29T07:04:05;6.15;;;1.60;;
19879;SDS011;10102;50.828;4.416;2024-03-29T07:06:31;3.03;;;1.70;;
19879;SDS011;10102;50.828;4.416;2024-03-29T07:08:57;4.50;;;1.80;;
19879;SDS011;10102;50.828;4.416;2024-03-29T07:11:23;5.30;;;2.03;;
19879;SDS011;10102;50.828;4.416;2024-03-29T07:13:49;4.75;;;1.95;;
19879;SDS011;10102;50.828;4.416;2024-03-29T07:16:15;2.85;;;1.70;;
19879;SDS011;10102;50.828;4.416;2024-03-29T07:18:41;8.43;;;2.83;;
19879;SDS011;10102;50.828;4.416;2024-03-29T07:21:06;4.22;;;1.98;;
19879;SDS011;10102;50.828;4.416;2024-03-29T07:23:32;4.90;;;2.00;;
19879;SDS011;10102;50.828;4.416;2024-03-29T07:25:58;6.70;;;1.90;;
19879;SDS011;10102;50.828;4.416;2024-03-29T07:28:24;3.60;;;1.83;;
19879;SDS011;10102;50.828;4.416;2024-03-29T07:30:50;3.25;;;2.03;;
19879;SDS011;10102;50.828;4.416;2024-03-29T07:33:17;7.78;;;2.40;;
19879;SDS011;10102;50.828;4.416;2024-03-29T07:35:44;9.27;;;1.92;;
19879;SDS011;10102;50.828;4.416;2024-03-29T07:38:10;8.68;;;2.00;;
19879;SDS011;10102;50.828;4.416;2024-03-29T07:40:36;4.78;;;2.25;;
19879;SDS011;10102;50.828;4.416;2024-03-29T07:43:02;3.95;;;1.63;;
19879;SDS011;10102;50.828;4.416;2024-03-29T07:45:28;3.65;;;1.70;;
19879;SDS011;10102;50.828;4.416;2024-03-29T07:47:54;2.92;;;1.75;;
19879;SDS011;10102;50.828;4.416;2024-03-29T07:50:20;4.75;;;1.75;;
19879;SDS011;10102;50.828;4.416;2024-03-29T07:52:46;3.75;;;1.80;;
19879;SDS011;10102;50.828;4.416;2024-03-29T07:55:11;6.63;;;2.28;;
19879;SDS011;10102;50.828;4.416;2024-03-29T07:57:37;3.75;;;2.25;;
19879;SDS011;10102;50.828;4.416;2024-03-29T08:00:06;8.52;;;2.30;;
19879;SDS011;10102;50.828;4.416;2024-03-29T08:02:32;3.17;;;1.90;;
19879;SDS011;10102;50.828;4.416;2024-03-29T08:04:58;5.50;;;1.80;;
19879;SDS011;10102;50.828;4.416;2024-03-29T08:07:24;4.93;;;1.95;;
19879;SDS011;10102;50.828;4.416;2024-03-29T08:09:51;2.97;;;1.85;;
19879;SDS011;10102;50.828;4.416;2024-03-29T08:12:16;5.10;;;2.00;;
19879;SDS011;10102;50.828;4.416;2024-03-29T08:14:42;5.25;;;1.98;;
19879;SDS011;10102;50.828;4.416;2024-03-29T08:17:08;6.15;;;2.13;;
19879;SDS011;10102;50.828;4.416;2024-03-29T08:19:35;5.00;;;1.92;;
19879;SDS011;10102;50.828;4.416;2024-03-29T08:22:01;4.57;;;2.53;;
19879;SDS011;10102;50.828;4.416;2024-03-29T08:24:27;4.35;;;1.90;;
19879;SDS011;10102;50.828;4.416;2024-03-29T08:26:53;4.35;;;2.35;;
19879;SDS011;10102;50.828;4.416;2024-03-29T08:29:19;9.15;;;1.88;;
19879;SDS011;10102;50.828;4.416;2024-03-29T08:31:44;4.97;;;2.00;;
19879;SDS011;10102;50.828;4.416;2024-03-29T08:34:10;7.13;;;2.22;;
19879;SDS011;10102;50.828;4.416;2024-03-29T08:36:38;3.45;;;2.25;;
19879;SDS011;10102;50.828;4.416;2024-03-29T08:39:04;3.38;;;2.05;;
19879;SDS011;10102;50.828;4.416;2024-03-29T08:41:30;3.85;;;2.38;;
19879;SDS011;10102;50.828;4.416;2024-03-29T08:43:56;6.93;;;2.67;;
19879;SDS011;10102;50.828;4.416;2024-03-29T08:46:22;5.18;;;2.20;;
19879;SDS011;10102;50.828;4.416;2024-03-29T08:48:48;7.13;;;2.55;;
19879;SDS011;10102;50.828;4.416;2024-03-29T08:51:14;6.70;;;2.25;;
19879;SDS011;10102;50.828;4.416;2024-03-29T08:53:40;7.68;;;1.92;;
19879;SDS011;10102;50.828;4.416;2024-03-29T08:56:06;3.47;;;1.70;;
19879;SDS011;10102;50.828;4.416;2024-03-29T08:58:31;5.70;;;1.98;;
19879;SDS011;10102;50.828;4.416;2024-03-29T09:00:57;2.90;;;1.65;;
19879;SDS011;10102;50.828;4.416;2024-03-29T09:03:23;2.97;;;1.63;;
19879;SDS011;10102;50.828;4.416;2024-03-29T09:05:50;3.30;;;1.60;;
19879;SDS011;10102;50.828;4.416;2024-03-29T09:08:20;4.15;;;1.50;;
19879;SDS011;10102;50.828;4.416;2024-03-29T09:10:46;3.67;;;1.50;;
19879;SDS011;10102;50.828;4.416;2024-03-29T09:13:12;2.00;;;1.33;;
19879;SDS011;10102;50.828;4.416;2024-03-29T09:15:37;5.22;;;1.20;;
19879;SDS011;10102;50.828;4.416;2024-03-29T09:18:03;2.70;;;1.40;;
19879;SDS011;10102;50.828;4.416;2024-03-29T09:20:41;3.20;;;1.20;;
19879;SDS011;10102;50.828;4.416;2024-03-29T09:23:07;2.72;;;1.13;;
19879;SDS011;10102;50.828;4.416;2024-03-29T09:25:33;1.85;;;0.95;;
19879;SDS011;10102;50.828;4.416;2024-03-29T09:27:59;3.08;;;1.38;;
19879;SDS011;10102;50.828;4.416;2024-03-29T09:30:25;1.85;;;1.35;;
19879;SDS011;10102;50.828;4.416;2024-03-29T09:32:51;1.08;;;1.00;;
19879;SDS011;10102;50.828;4.416;2024-03-29T09:35:17;1.30;;;1.20;;
19879;SDS011;10102;50.828;4.416;2024-03-29T09:37:44;2.72;;;1.20;;
19879;SDS011;10102;50.828;4.416;2024-03-29T09:40:10;1.90;;;1.00;;
19879;SDS011;10102;50.828;4.416;2024-03-29T09:42:37;3.60;;;1.17;;
19879;SDS011;10102;50.828;4.416;2024-03-29T09:45:04;1.85;;;1.00;;
19879;SDS011;10102;50.828;4.416;2024-03-29T09:47:31;2.55;;;1.15;;
19879;SDS011;10102;50.828;4.416;2024-03-29T09:50:02;3.47;;;1.40;;
19879;SDS011;10102;50.828;4.416;2024-03-29T09:52:32;2.20;;;1.17;;
19879;SDS011;10102;50.828;4.416;2024-03-29T09:54:58;1.20;;;1.00;;
19879;SDS011;10102;50.828;4.416;2024-03-29T09:57:25;2.25;;;1.20;;
19879;SDS011;10102;50.828;4.416;2024-03-29T09:59:56;2.38;;;1.13;;
19879;SDS011;10102;50.828;4.416;2024-03-29T10:02:22;1.13;;;0.90;;
19879;SDS011;10102;50.828;4.416;2024-03-29T10:04:51;1.88;;;1.00;;
19879;SDS011;10102;50.828;4.416;2024-03-29T10:07:20;2.40;;;1.33;;
19879;SDS011;10102;50.828;4.416;2024-03-29T10:09:47;3.13;;;1.20;;
19879;SDS011;10102;50.828;4.416;2024-03-29T10:12:15;3.13;;;1.33;;
19879;SDS011;10102;50.828;4.416;2024-03-29T10:14:43;4.20;;;1.27;;
19879;SDS011;10102;50.828;4.416;2024-03-29T10:17:19;1.60;;;1.15;;
19879;SDS011;10102;50.828;4.416;2024-03-29T10:19:46;3.97;;;1.50;;
19879;SDS011;10102;50.828;4.416;2024-03-29T10:22:12;1.80;;;1.25;;
19879;SDS011;10102;50.828;4.416;2024-03-29T10:24:38;3.17;;;1.20;;
19879;SDS011;10102;50.828;4.416;2024-03-29T10:27:04;2.45;;;1.55;;
19879;SDS011;10102;50.828;4.416;2024-03-29T10:29:31;3.70;;;1.70;;
19879;SDS011;10102;50.828;4.416;2024-03-29T10:31:56;2.13;;;1.50;;
19879;SDS011;10102;50.828;4.416;2024-03-29T10:34:22;1.50;;;1.40;;
19879;SDS011;10102;50.828;4.416;2024-03-29T10:36:50;2.20;;;1.50;;
19879;SDS011;10102;50.828;4.416;2024-03-29T10:39:16;1.85;;;1.27;;
19879;SDS011;10102;50.828;4.416;2024-03-29T10:41:43;2.38;;;1.20;;
19879;SDS011;10102;50.828;4.416;2024-03-29T10:44:11;2.42;;;1.13;;
19879;SDS011;10102;50.828;4.416;2024-03-29T10:46:38;2.15;;;1.33;;
19879;SDS011;10102;50.828;4.416;2024-03-29T10:49:08;2.10;;;1.23;;
19879;SDS011;10102;50.828;4.416;2024-03-29T10:51:38;1.65;;;1.30;;
19879;SDS011;10102;50.828;4.416;2024-03-29T10:54:05;3.67;;;1.65;;
19879;SDS011;10102;50.828;4.416;2024-03-29T10:56:35;2.08;;;1.60;;
19879;SDS011;10102;50.828;4.416;2024-03-29T10:59:12;6.70;;;1.88;;
19879;SDS011;10102;50.828;4.416;2024-03-29T11:01:44;1.55;;;1.45;;
19879;SDS011;10102;50.828;4.416;2024-03-29T11:04:13;1.75;;;1.38;;
19879;SDS011;10102;50.828;4.416;2024-03-29T11:06:47;3.92;;;1.48;;
19879;SDS011;10102;50.828;4.416;2024-03-29T11:09:16;1.95;;;1.17;;
19879;SDS011;10102;50.828;4.416;2024-03-29T11:11:44;2.97;;;1.30;;
19879;SDS011;10102;50.828;4.416;2024-03-29T11:14:16;2.92;;;0.90;;
19879;SDS011;10102;50.828;4.416;2024-03-29T11:16:48;2.63;;;1.20;;
19879;SDS011;10102;50.828;4.416;2024-03-29T11:19:16;1.45;;;0.95;;
19879;SDS011;10102;50.828;4.416;2024-03-29T11:21:42;1.77;;;1.25;;
19879;SDS011;10102;50.828;4.416;2024-03-29T11:24:16;2.45;;;1.00;;
19879;SDS011;10102;50.828;4.416;2024-03-29T11:26:45;2.17;;;1.40;;
19879;SDS011;10102;50.828;4.416;2024-03-29T11:29:21;1.80;;;1.00;;
19879;SDS011;10102;50.828;4.416;2024-03-29T11:31:47;2.58;;;1.10;;
19879;SDS011;10102;50.828;4.416;2024-03-29T11:34:21;2.90;;;1.00;;
19879;SDS011;10102;50.828;4.416;2024-03-29T11:36:46;2.63;;;0.98;;
19879;SDS011;10102;50.828;4.416;2024-03-29T11:39:23;1.40;;;0.90;;
19879;SDS011;10102;50.828;4.416;2024-03-29T11:41:49;1.67;;;1.08;;
19879;SDS011;10102;50.828;4.416;2024-03-29T11:44:15;1.98;;;0.80;;
19879;SDS011;10102;50.828;4.416;2024-03-29T11:46:44;1.23;;;0.70;;
19879;SDS011;10102;50.828;4.416;2024-03-29T11:49:12;2.72;;;0.63;;
19879;SDS011;10102;50.828;4.416;2024-03-29T11:51:40;0.77;;;0.60;;
19879;SDS011;10102;50.828;4.416;2024-03-29T11:54:06;1.30;;;0.60;;
19879;SDS011;10102;50.828;4.416;2024-03-29T11:56:32;1.92;;;0.90;;
19879;SDS011;10102;50.828;4.416;2024-03-29T11:58:58;1.17;;;0.77;;
19879;SDS011;10102;50.828;4.416;2024-03-29T12:01:26;1.42;;;0.80;;
19879;SDS011;10102;50.828;4.416;2024-03-29T12:03:52;2.70;;;0.80;;
19879;SDS011;10102;50.828;4.416;2024-03-29T12:06:19;1.38;;;0.88;;
19879;SDS011;10102;50.828;4.416;2024-03-29T12:08:45;1.90;;;0.93;;
19879;SDS011;10102;50.828;4.416;2024-03-29T12:11:10;1.73;;;0.93;;
19879;SDS011;10102;50.828;4.416;2024-03-29T12:13:36;1.48;;;0.75;;
19879;SDS011;10102;50.828;4.416;2024-03-29T12:16:02;1.23;;;0.70;;
19879;SDS011;10102;50.828;4.416;2024-03-29T12:18:30;2.38;;;0.93;;
19879;SDS011;10102;50.828;4.416;2024-03-29T12:20:57;3.22;;;0.82;;
19879;SDS011;10102;50.828;4.416;2024-03-29T12:23:23;2.95;;;0.85;;
19879;SDS011;10102;50.828;4.416;2024-03-29T12:25:49;1.60;;;1.00;;
19879;SDS011;10102;50.828;4.416;2024-03-29T12:28:16;3.58;;;1.20;;
19879;SDS011;10102;50.828;4.416;2024-03-29T12:30:45;2.88;;;1.05;;
19879;SDS011;10102;50.828;4.416;2024-03-29T12:33:12;1.65;;;1.25;;
19879;SDS011;10102;50.828;4.416;2024-03-29T12:35:45;3.33;;;1.15;;
19879;SDS011;10102;50.828;4.416;2024-03-29T12:38:14;1.77;;;0.85;;
19879;SDS011;10102;50.828;4.416;2024-03-29T12:40:41;3.13;;;1.10;;
19879;SDS011;10102;50.828;4.416;2024-03-29T12:43:09;2.40;;;1.08;;
19879;SDS011;10102;50.828;4.416;2024-03-29T12:45:36;1.50;;;1.00;;
19879;SDS011;10102;50.828;4.416;2024-03-29T12:48:08;3.53;;;1.63;;
19879;SDS011;10102;50.828;4.416;2024-03-29T12:50:42;3.88;;;1.33;;
19879;SDS011;10102;50.828;4.416;2024-03-29T12:53:10;0.70;;;0.70;;
19879;SDS011;10102;50.828;4.416;2024-03-29T12:55:38;1.90;;;1.00;;
19879;SDS011;10102;50.828;4.416;2024-03-29T12:58:07;0.70;;;0.70;;
19879;SDS011;10102;50.828;4.416;2024-03-29T13:00:36;0.85;;;0.75;;
19879;SDS011;10102;50.828;4.416;2024-03-29T13:03:02;0.85;;;0.77;;
19879;SDS011;10102;50.828;4.416;2024-03-29T13:05:28;1.25;;;0.90;;
19879;SDS011;10102;50.828;4.416;2024-03-29T13:08:00;0.93;;;0.80;;
19879;SDS011;10102;50.828;4.416;2024-03-29T13:10:29;1.95;;;0.60;;
19879;SDS011;10102;50.828;4.416;2024-03-29T13:12:55;0.98;;;0.50;;
19879;SDS011;10102;50.828;4.416;2024-03-29T13:15:22;0.40;;;0.40;;
19879;SDS011;10102;50.828;4.416;2024-03-29T13:17:52;1.08;;;0.65;;
19879;SDS011;10102;50.828;4.416;2024-03-29T13:20:19;1.25;;;0.68;;
19879;SDS011;10102;50.828;4.416;2024-03-29T13:22:47;1.17;;;0.60;;
19879;SDS011;10102;50.828;4.416;2024-03-29T13:25:15;1.00;;;0.60;;
19879;SDS011;10102;50.828;4.416;2024-03-29T13:27:42;1.02;;;0.90;;
19879;SDS011;10102;50.828;4.416;2024-03-29T13:30:10;3.80;;;1.00;;
19879;SDS011;10102;50.828;4.416;2024-03-29T13:32:40;1.52;;;0.95;;
19879;SDS011;10102;50.828;4.416;2024-03-29T13:35:07;2.88;;;0.80;;
19879;SDS011;10102;50.828;4.416;2024-03-29T13:37:37;1.48;;;1.00;;
19879;SDS011;10102;50.828;4.416;2024-03-29T13:40:12;1.63;;;1.17;;
19879;SDS011;10102;50.828;4.416;2024-03-29T13:42:38;4.53;;;1.60;;
19879;SDS011;10102;50.828;4.416;2024-03-29T13:45:04;2.33;;;1.42;;
19879;SDS011;10102;50.828;4.416;2024-03-29T13:47:34;3.65;;;1.40;;
19879;SDS011;10102;50.828;4.416;2024-03-29T13:50:01;4.72;;;1.02;;
19879;SDS011;10102;50.828;4.416;2024-03-29T13:52:28;3.88;;;0.75;;
19879;SDS011;10102;50.828;4.416;2024-03-29T13:54:54;0.82;;;0.50;;
19879;SDS011;10102;50.828;4.416;2024-03-29T13:57:20;2.67;;;0.75;;
19879;SDS011;10102;50.828;4.416;2024-03-29T13:59:46;2.03;;;1.00;;
19879;SDS011;10102;50.828;4.416;2024-03-29T14:02:12;5.90;;;0.93;;
19879;SDS011;10102;50.828;4.416;2024-03-29T14:04:42;1.80;;;0.73;;
19879;SDS011;10102;50.828;4.416;2024-03-29T14:07:09;2.80;;;0.85;;
19879;SDS011;10102;50.828;4.416;2024-03-29T14:09:39;1.17;;;0.75;;
19879;SDS011;10102;50.828;4.416;2024-03-29T14:12:07;1.48;;;0.90;;
19879;SDS011;10102;50.828;4.416;2024-03-29T14:14:33;1.13;;;0.90;;
19879;SDS011;10102;50.828;4.416;2024-03-29T14:16:59;2.58;;;1.00;;
19879;SDS011;10102;50.828;4.416;2024-03-29T14:19:34;2.38;;;1.00;;
19879;SDS011;10102;50.828;4.416;2024-03-29T14:22:04;1.85;;;1.20;;
19879;SDS011;10102;50.828;4.416;2024-03-29T14:24:30;2.05;;;1.15;;
19879;SDS011;10102;50.828;4.416;2024-03-29T14:27:00;1.63;;;1.27;;
19879;SDS011;10102;50.828;4.416;2024-03-29T14:29:33;1.70;;;0.95;;
19879;SDS011;10102;50.828;4.416;2024-03-29T14:31:59;1.67;;;0.80;;
19879;SDS011;10102;50.828;4.416;2024-03-29T14:34:26;1.52;;;0.90;;
19879;SDS011;10102;50.828;4.416;2024-03-29T14:36:52;2.03;;;0.93;;
19879;SDS011;10102;50.828;4.416;2024-03-29T14:39:18;2.38;;;0.65;;
19879;SDS011;10102;50.828;4.416;2024-03-29T14:41:46;1.40;;;1.00;;
19879;SDS011;10102;50.828;4.416;2024-03-29T14:44:12;2.35;;;0.90;;
19879;SDS011;10102;50.828;4.416;2024-03-29T14:46:38;1.95;;;1.00;;